Terminal Aerodrome Forecast
Issued by NWS Paducah, KY

Home | Current Version | Previous Version | Text Only | Print | Product List | Glossary On
Versions: 1 2 3 4 5 6 7 8 9 10 11 12 13 14 15 16 17
000
FTUS43 KPAH 271720
TAFEVV
TAF
KEVV 271720Z 2718/2818 36008KT P6SM SCT025 BKN250
     FM280000 01005KT P6SM SCT030 BKN090
     FM280500 03004KT P6SM BKN080
     FM281500 07005KT P6SM SCT025 BKN070=

USA.gov is the U.S. government's official web portal to all federal, state and local government web resources and services.